createdAt,value
2019-04-11T00:00:59.975Z,6.31
2019-04-11T00:02:00.487Z,6.27
2019-04-11T00:03:00.822Z,6.25
2019-04-11T00:03:59.941Z,6.30
2019-04-11T00:04:59.928Z,6.27
2019-04-11T00:05:59.945Z,6.27
2019-04-11T00:07:00.260Z,6.19
2019-04-11T00:08:00.145Z,6.19
2019-04-11T00:09:00.676Z,6.27
2019-04-11T00:10:00.644Z,6.30
2019-04-11T00:11:00.250Z,6.21
2019-04-11T00:12:00.062Z,6.27
2019-04-11T00:13:01.250Z,6.15
2019-04-11T00:14:00.019Z,6.17
2019-04-11T00:15:00.206Z,6.15
2019-04-11T00:16:01.196Z,6.14
2019-04-11T00:17:00.062Z,6.09
2019-04-11T00:18:00.655Z,6.14
2019-04-11T00:19:00.074Z,6.14
2019-04-11T00:20:00.084Z,6.09
2019-04-11T00:21:00.364Z,6.09
2019-04-11T00:22:01.522Z,6.09
2019-04-11T00:23:00.111Z,6.06
2019-04-11T00:24:00.743Z,6.06
2019-04-11T00:25:01.052Z,5.97
2019-04-11T00:26:00.150Z,6.00
2019-04-11T00:27:00.389Z,5.96
2019-04-11T00:28:01.443Z,5.96
2019-04-11T00:29:00.175Z,5.91
2019-04-11T00:30:00.184Z,5.81
2019-04-11T00:31:00.821Z,5.89
2019-04-11T00:32:01.084Z,5.83
2019-04-11T00:33:00.259Z,5.82
2019-04-11T00:34:00.458Z,5.85
2019-04-11T00:35:01.526Z,5.86
2019-04-11T00:36:00.245Z,5.86
2019-04-11T00:37:00.996Z,6.00
2019-04-11T00:38:01.402Z,6.03
2019-04-11T00:39:01.327Z,6.06
2019-04-11T00:41:01.658Z,5.96
2019-04-11T00:42:00.363Z,5.93
2019-04-11T00:43:01.113Z,5.86
2019-04-11T00:44:00.835Z,5.82
2019-04-11T00:45:00.520Z,5.86
2019-04-11T00:46:01.809Z,5.82
2019-04-11T00:47:00.823Z,5.83
2019-04-11T00:48:01.582Z,5.75
2019-04-11T00:49:00.381Z,5.83
2019-04-11T00:50:00.993Z,5.68
2019-04-11T00:51:01.390Z,5.83
2019-04-11T00:52:00.435Z,5.83
2019-04-11T00:53:01.492Z,5.83
2019-04-11T00:54:00.668Z,5.78
2019-04-11T00:55:00.445Z,5.75
2019-04-11T00:56:00.464Z,5.72
2019-04-11T00:57:00.872Z,5.79
2019-04-11T00:58:01.371Z,5.78
2019-04-11T00:59:00.489Z,5.75
2019-04-11T01:00:00.632Z,5.82
2019-04-11T01:01:01.656Z,5.74
2019-04-11T01:02:00.990Z,5.71
2019-04-11T01:03:00.522Z,5.67
2019-04-11T01:04:01.333Z,5.67
2019-04-11T01:05:01.360Z,5.58
2019-04-11T01:06:01.576Z,5.58
2019-04-11T01:07:00.726Z,5.65
2019-04-11T01:08:00.577Z,5.61
2019-04-11T01:09:00.597Z,5.57
2019-04-11T01:10:01.095Z,5.57
2019-04-11T01:11:00.705Z,5.51
2019-04-11T01:12:00.653Z,5.48
2019-04-11T01:13:00.838Z,5.49
2019-04-11T01:14:01.577Z,5.54
2019-04-11T01:15:00.647Z,5.49
2019-04-11T01:16:01.085Z,5.48
2019-04-11T01:17:01.126Z,5.51
2019-04-11T01:18:01.458Z,5.49
2019-04-11T01:19:00.688Z,5.48
2019-04-11T01:20:00.690Z,5.53
2019-04-11T01:21:01.947Z,5.49
2019-04-11T01:22:01.264Z,5.45
2019-04-11T01:23:00.750Z,5.43
2019-04-11T01:24:01.720Z,5.49
2019-04-11T01:25:00.948Z,5.46
2019-04-11T01:26:01.185Z,5.46
2019-04-11T01:27:01.483Z,5.48
2019-04-11T01:28:00.771Z,5.49
2019-04-11T01:29:00.965Z,5.51
2019-04-11T01:30:02.082Z,5.45
2019-04-11T01:31:01.062Z,5.45
2019-04-11T01:32:00.810Z,5.54
2019-04-11T01:33:00.820Z,5.36
2019-04-11T01:34:02.278Z,5.31
2019-04-11T01:35:01.300Z,5.33
2019-04-11T01:36:00.848Z,5.30
2019-04-11T01:37:01.689Z,5.35
2019-04-11T01:38:00.968Z,5.31
2019-04-11T01:39:01.017Z,5.28
2019-04-11T01:40:01.510Z,5.25
2019-04-11T01:41:00.900Z,5.22
2019-04-11T01:42:01.131Z,5.27
2019-04-11T01:43:01.925Z,5.31
2019-04-11T01:44:04.196Z,5.27
2019-04-11T01:45:01.126Z,5.33
2019-04-11T01:46:02.130Z,5.21
2019-04-11T01:47:00.965Z,5.22
2019-04-11T01:48:01.569Z,5.25
2019-04-11T01:49:00.983Z,5.27
2019-04-11T01:50:00.988Z,5.24
2019-04-11T01:51:01.249Z,5.30
2019-04-11T01:52:02.432Z,5.28
2019-04-11T01:53:01.020Z,5.30
2019-04-11T01:54:01.524Z,5.22
2019-04-11T01:55:02.016Z,5.21
2019-04-11T01:56:01.111Z,5.15
2019-04-11T01:57:01.682Z,5.17
2019-04-11T01:58:01.070Z,5.09
2019-04-11T01:59:01.089Z,5.09
2019-04-11T02:00:01.998Z,5.17
2019-04-11T02:01:01.107Z,5.10
2019-04-11T02:02:01.264Z,5.15
2019-04-11T02:03:01.267Z,5.06
2019-04-11T02:04:01.135Z,5.07
2019-04-11T02:05:01.145Z,5.12
2019-04-11T02:06:01.285Z,5.07
2019-04-11T02:07:01.163Z,5.02
2019-04-11T02:08:01.168Z,5.09
2019-04-11T02:09:01.907Z,5.04
2019-04-11T02:10:02.379Z,5.06
2019-04-11T02:11:01.397Z,5.03
2019-04-11T02:13:01.727Z,5.04
2019-04-11T02:14:10.839Z,5.04
2019-04-11T02:15:01.793Z,5.06
2019-04-11T02:16:02.905Z,5.02
2019-04-11T02:17:01.426Z,5.03
2019-04-11T02:18:01.399Z,5.02
2019-04-11T02:19:01.806Z,5.04
2019-04-11T02:20:01.295Z,4.97
2019-04-11T02:21:01.300Z,5.00
2019-04-11T02:22:02.174Z,4.97
2019-04-11T02:23:02.316Z,4.96
2019-04-11T02:24:01.611Z,4.97
2019-04-11T02:25:01.341Z,4.99
2019-04-11T02:26:01.356Z,4.94
2019-04-11T02:27:01.377Z,4.94
2019-04-11T02:28:01.368Z,4.92
2019-04-11T02:29:01.424Z,4.88
2019-04-11T02:30:01.878Z,4.88
2019-04-11T02:31:02.774Z,4.91
2019-04-11T02:32:04.922Z,4.91
2019-04-11T02:33:01.425Z,4.86
2019-04-11T02:34:02.453Z,4.88
2019-04-11T02:35:04.303Z,5.00
2019-04-11T02:36:03.221Z,4.96
2019-04-11T02:37:02.360Z,4.97
2019-04-11T02:38:02.888Z,4.99
2019-04-11T02:39:05.742Z,4.96
2019-04-11T02:40:03.092Z,4.89
2019-04-11T02:41:03.330Z,4.82
2019-04-11T02:42:03.718Z,4.84
2019-04-11T02:43:01.591Z,4.86
2019-04-11T02:44:03.182Z,4.91
2019-04-11T02:45:18.203Z,4.77
2019-04-11T02:47:08.414Z,4.88
2019-04-11T02:48:01.784Z,4.82
2019-04-11T02:49:03.098Z,4.80
2019-04-11T02:50:01.631Z,4.77
2019-04-11T02:51:03.163Z,4.84
2019-04-11T02:52:02.707Z,4.80
2019-04-11T02:53:02.953Z,4.73
2019-04-11T02:54:02.261Z,4.82
2019-04-11T02:55:03.445Z,4.80
2019-04-11T02:56:02.837Z,4.84
2019-04-11T02:57:02.754Z,4.80
2019-04-11T02:58:03.234Z,4.89
2019-04-11T02:59:02.320Z,4.70
2019-04-11T03:00:02.093Z,4.69
2019-04-11T03:01:05.013Z,4.73
2019-04-11T03:03:03.541Z,4.69
2019-04-11T03:04:04.335Z,4.70
2019-04-11T03:05:02.789Z,4.66
2019-04-11T03:06:02.778Z,4.66
2019-04-11T03:07:01.757Z,4.65
2019-04-11T03:08:06.834Z,4.62
2019-04-11T03:09:02.493Z,4.69
2019-04-11T03:10:03.139Z,4.62
2019-04-11T03:11:01.943Z,4.60
2019-04-11T03:12:02.948Z,4.62
2019-04-11T03:13:02.890Z,4.60
2019-04-11T03:15:16.496Z,4.55
2019-04-11T03:16:17.212Z,4.66
2019-04-11T03:17:11.901Z,4.65
2019-04-11T03:20:13.025Z,4.52
2019-04-11T03:21:07.179Z,4.55
2019-04-11T03:22:03.280Z,4.63
2019-04-11T03:23:05.712Z,4.65
2019-04-11T03:24:02.882Z,4.55
2019-04-11T03:25:03.111Z,4.54
2019-04-11T03:26:03.207Z,4.52
2019-04-11T03:27:04.803Z,4.51
2019-04-11T03:29:02.542Z,4.48
2019-04-11T03:30:02.993Z,4.48
2019-04-11T03:31:37.274Z,4.48
2019-04-11T03:32:42.486Z,4.47
2019-04-11T03:33:58.040Z,4.41
2019-04-11T03:34:52.005Z,4.37
2019-04-11T03:38:24.664Z,4.40
2019-04-11T03:39:25.287Z,4.29
2019-04-11T03:40:22.385Z,4.29
2019-04-11T03:41:20.388Z,4.26
2019-04-11T03:42:17.203Z,4.27
2019-04-11T03:43:15.217Z,4.27
2019-04-11T03:44:12.101Z,4.29
2019-04-11T03:45:21.043Z,4.26
2019-04-11T03:46:21.468Z,4.14
2019-04-11T03:47:16.830Z,4.22
2019-04-11T03:48:17.958Z,4.20
2019-04-11T03:49:16.469Z,4.20
2019-04-11T03:50:08.390Z,4.16
2019-04-11T03:52:03.658Z,4.26
2019-04-11T03:53:04.081Z,4.20
2019-04-11T03:54:02.629Z,4.16
2019-04-11T03:55:04.524Z,4.26
2019-04-11T03:57:03.618Z,4.27
2019-04-11T03:58:03.827Z,4.29
2019-04-11T03:59:03.823Z,4.23
2019-04-11T04:00:04.254Z,4.16
2019-04-11T04:01:05.518Z,4.11
2019-04-11T04:02:03.260Z,4.16
2019-04-11T04:03:04.593Z,4.16
2019-04-11T04:04:02.720Z,4.18
2019-04-11T04:05:04.041Z,4.16
2019-04-11T04:06:02.329Z,4.15
2019-04-11T04:07:02.624Z,4.18
2019-04-11T04:08:04.527Z,4.05
2019-04-11T04:09:02.832Z,4.12
2019-04-11T04:10:03.023Z,4.14
2019-04-11T04:11:04.020Z,4.09
2019-04-11T04:12:02.938Z,4.06
2019-04-11T04:13:03.332Z,4.12
2019-04-11T04:14:04.167Z,4.04
2019-04-11T04:15:04.583Z,4.12
2019-04-11T04:16:12.048Z,4.09
2019-04-11T04:17:04.247Z,4.12
2019-04-11T04:18:03.554Z,4.14
2019-04-11T04:19:03.446Z,4.16
2019-04-11T04:20:04.961Z,4.02
2019-04-11T04:21:04.151Z,4.16
2019-04-11T04:22:04.913Z,4.16
2019-04-11T04:23:03.243Z,4.08
2019-04-11T04:24:04.079Z,4.16
2019-04-11T04:25:04.266Z,4.12
2019-04-11T04:26:03.137Z,4.02
2019-04-11T04:27:04.239Z,4.12
2019-04-11T04:28:03.090Z,4.02
2019-04-11T04:29:04.327Z,4.09
2019-04-11T04:30:05.261Z,4.09
2019-04-11T04:31:04.439Z,4.05
2019-04-11T04:33:02.953Z,3.96
2019-04-11T04:34:03.806Z,3.96
2019-04-11T04:35:06.974Z,3.98
2019-04-11T04:36:06.501Z,3.86
2019-04-11T04:38:03.061Z,3.91
2019-04-11T04:39:04.154Z,3.91
2019-04-11T04:40:21.622Z,3.96
2019-04-11T04:41:16.896Z,3.88
2019-04-11T04:42:08.882Z,3.84
2019-04-11T04:43:05.138Z,3.88
2019-04-11T04:44:04.497Z,3.84
2019-04-11T04:45:04.814Z,3.83
2019-04-11T04:46:20.528Z,3.84
2019-04-11T04:47:13.642Z,3.90
2019-04-11T04:48:07.815Z,3.87
2019-04-11T04:49:04.655Z,3.87
2019-04-11T04:50:04.560Z,3.87
2019-04-11T04:51:07.793Z,3.86
2019-04-11T04:52:04.046Z,3.86
2019-04-11T04:53:02.974Z,3.83
2019-04-11T04:54:03.984Z,3.88
2019-04-11T04:55:05.674Z,3.83
2019-04-11T04:56:03.196Z,3.88
2019-04-11T04:57:05.047Z,3.91
2019-04-11T04:58:02.801Z,3.96
2019-04-11T04:59:04.259Z,4.00
2019-04-11T05:00:04.963Z,3.86
2019-04-11T05:01:04.165Z,3.86
2019-04-11T05:02:04.000Z,3.96
2019-04-11T05:03:02.929Z,3.93
2019-04-11T05:04:04.575Z,3.93
2019-04-11T05:05:04.232Z,3.87
2019-04-11T05:06:04.037Z,3.90
2019-04-11T05:07:03.364Z,3.93
2019-04-11T05:08:03.076Z,3.91
2019-04-11T05:09:04.180Z,3.90
2019-04-11T05:10:04.486Z,3.96
2019-04-11T05:11:04.530Z,3.91
2019-04-11T05:12:03.428Z,3.97
2019-04-11T05:14:03.119Z,3.79
2019-04-11T05:15:03.726Z,3.79
2019-04-11T05:17:04.359Z,3.90
2019-04-11T05:18:04.093Z,3.83
2019-04-11T05:19:03.000Z,3.96
2019-04-11T05:20:03.106Z,4.02
2019-04-11T05:21:03.315Z,3.88
2019-04-11T05:22:03.186Z,3.96
2019-04-11T05:23:04.231Z,3.91
2019-04-11T05:24:04.058Z,3.87
2019-04-11T05:25:03.855Z,4.02
2019-04-11T05:26:03.500Z,3.88
2019-04-11T05:27:04.143Z,4.00
2019-04-11T05:28:04.304Z,4.04
2019-04-11T05:29:04.826Z,4.00
2019-04-11T05:30:04.918Z,3.98
2019-04-11T05:31:03.117Z,3.96
2019-04-11T05:32:03.179Z,3.98
2019-04-11T05:33:04.011Z,4.09
2019-04-11T05:34:03.512Z,4.14
2019-04-11T05:35:03.149Z,4.05
2019-04-11T05:36:03.968Z,4.14
2019-04-11T05:37:03.954Z,4.14
2019-04-11T05:38:03.169Z,4.09
2019-04-11T05:39:03.332Z,4.16
2019-04-11T05:40:03.239Z,4.14
2019-04-11T05:41:04.261Z,4.14
2019-04-11T05:42:04.962Z,4.22
2019-04-11T05:43:03.970Z,4.09
2019-04-11T05:44:07.653Z,4.15
2019-04-11T05:45:03.349Z,4.18
2019-04-11T05:46:10.173Z,4.29
2019-04-11T05:47:05.597Z,4.27
2019-04-11T05:48:03.329Z,4.36
2019-04-11T05:49:05.384Z,4.36
2019-04-11T05:50:07.531Z,4.48
2019-04-11T05:51:06.837Z,4.30
2019-04-11T05:52:06.103Z,4.30
2019-04-11T05:53:05.653Z,4.24
2019-04-11T05:54:07.353Z,4.37
2019-04-11T05:55:04.928Z,4.40
2019-04-11T05:56:03.663Z,4.48
2019-04-11T05:57:03.444Z,4.50
2019-04-11T05:58:08.655Z,4.65
2019-04-11T05:59:03.898Z,4.51
2019-04-11T06:00:04.049Z,4.52
2019-04-11T06:01:03.534Z,4.59
2019-04-11T06:02:07.258Z,4.62
2019-04-11T06:03:03.815Z,4.55
2019-04-11T06:06:04.744Z,4.40
2019-04-11T06:07:03.558Z,4.36
2019-04-11T06:08:05.473Z,4.45
2019-04-11T06:10:08.480Z,4.54
2019-04-11T06:11:04.678Z,4.65
2019-04-11T06:12:03.636Z,4.63
2019-04-11T06:13:04.563Z,4.65
2019-04-11T06:14:05.714Z,4.65
2019-04-11T06:15:03.964Z,4.69
2019-04-11T06:16:04.631Z,4.67
2019-04-11T06:17:03.561Z,4.65
2019-04-11T06:18:04.814Z,4.63
2019-04-11T06:19:04.375Z,4.80
2019-04-11T06:20:04.058Z,4.85
2019-04-11T06:21:03.982Z,4.73
2019-04-11T06:22:04.567Z,4.77
2019-04-11T06:23:04.877Z,4.85
2019-04-11T06:24:03.644Z,4.80
2019-04-11T06:25:04.142Z,4.89
2019-04-11T06:26:03.644Z,4.66
2019-04-11T06:27:04.010Z,4.60
2019-04-11T06:28:04.102Z,4.59
2019-04-11T06:30:03.664Z,4.69
2019-04-11T06:31:04.884Z,4.75
2019-04-11T06:32:03.689Z,4.77
2019-04-11T06:33:04.612Z,4.80
2019-04-11T06:34:04.941Z,4.88
2019-04-11T06:35:04.045Z,4.89
2019-04-11T06:36:04.285Z,4.92
2019-04-11T06:37:03.780Z,4.97
2019-04-11T06:38:04.112Z,4.99
2019-04-11T06:39:05.037Z,4.91
2019-04-11T06:41:03.775Z,5.00
2019-04-11T06:43:04.236Z,5.12
2019-04-11T06:44:04.758Z,5.07
2019-04-11T06:45:06.046Z,5.09
2019-04-11T06:46:04.962Z,5.17
2019-04-11T06:47:05.250Z,5.18
2019-04-11T06:48:05.204Z,5.21
2019-04-11T06:49:04.497Z,5.27
2019-04-11T06:50:03.947Z,5.24
2019-04-11T06:51:03.946Z,5.36
2019-04-11T06:52:04.370Z,5.31
2019-04-11T06:53:04.476Z,5.28
2019-04-11T06:54:04.469Z,5.35
2019-04-11T06:55:04.589Z,5.38
2019-04-11T06:56:04.136Z,5.43
2019-04-11T06:57:03.932Z,5.51
2019-04-11T06:58:04.770Z,5.64
2019-04-11T06:59:04.025Z,5.58
2019-04-11T07:00:05.109Z,5.65
2019-04-11T07:01:05.416Z,5.67
2019-04-11T07:02:12.380Z,5.60
2019-04-11T07:03:05.608Z,5.67
2019-04-11T07:04:05.031Z,5.68
2019-04-11T07:05:04.549Z,5.68
2019-04-11T07:06:05.027Z,5.75
2019-04-11T07:07:04.474Z,5.71
2019-04-11T07:08:05.425Z,5.61
2019-04-11T07:09:05.406Z,5.65
2019-04-11T07:10:04.225Z,5.71
2019-04-11T07:11:04.119Z,5.74
2019-04-11T07:12:05.550Z,5.79
2019-04-11T07:13:04.167Z,5.78
2019-04-11T07:14:04.178Z,5.76
2019-04-11T07:15:04.517Z,5.83
2019-04-11T07:16:04.719Z,5.91
2019-04-11T07:17:07.211Z,6.03
2019-04-11T07:18:07.075Z,6.19
2019-04-11T07:19:04.912Z,6.14
2019-04-11T07:20:04.538Z,6.17
2019-04-11T07:21:04.184Z,6.27
2019-04-11T07:22:04.641Z,6.34
2019-04-11T07:23:05.898Z,6.31
2019-04-11T07:24:05.400Z,6.30
2019-04-11T07:25:04.301Z,6.15
2019-04-11T07:26:04.518Z,6.33
2019-04-11T07:27:04.275Z,6.31
2019-04-11T07:28:04.303Z,6.33
2019-04-11T07:30:05.238Z,6.43
2019-04-11T07:32:04.877Z,6.48
2019-04-11T07:33:04.307Z,6.40
2019-04-11T07:34:04.319Z,6.59
2019-04-11T07:35:04.815Z,6.69
2019-04-11T07:36:04.332Z,6.71
2019-04-11T07:38:05.309Z,6.67
2019-04-11T07:39:05.554Z,6.54
2019-04-11T07:40:05.868Z,6.58
2019-04-11T07:41:04.395Z,6.59
2019-04-11T07:42:06.943Z,6.62
2019-04-11T07:44:04.405Z,6.70
2019-04-11T07:45:04.412Z,6.74
2019-04-11T07:46:04.673Z,6.74
2019-04-11T07:47:14.584Z,6.84
2019-04-11T07:48:07.198Z,6.81
2019-04-11T07:49:05.793Z,6.89
2019-04-11T07:50:05.819Z,7.02
2019-04-11T07:51:04.479Z,7.05
2019-04-11T07:52:04.667Z,7.07
2019-04-11T07:53:05.008Z,7.12
2019-04-11T07:54:04.797Z,7.20
2019-04-11T07:55:06.681Z,7.30
2019-04-11T07:56:05.085Z,7.32
2019-04-11T07:59:05.110Z,7.37
2019-04-11T08:00:05.910Z,7.42
2019-04-11T08:01:04.879Z,7.53
2019-04-11T08:03:04.626Z,7.42
2019-04-11T08:04:04.627Z,7.45
2019-04-11T08:05:04.693Z,7.60
2019-04-11T08:06:05.671Z,7.61
2019-04-11T08:07:04.805Z,7.57
2019-04-11T08:08:06.273Z,7.61
2019-04-11T08:09:05.082Z,7.60
2019-04-11T08:10:05.824Z,7.69
2019-04-11T08:11:04.711Z,7.72
2019-04-11T08:12:04.821Z,7.77
2019-04-11T08:13:05.852Z,7.64
2019-04-11T08:14:04.734Z,7.75
2019-04-11T08:15:04.923Z,7.74
2019-04-11T08:16:06.160Z,7.75
2019-04-11T08:17:04.766Z,7.90
2019-04-11T08:18:04.775Z,7.95
2019-04-11T08:19:05.539Z,7.98
2019-04-11T08:20:05.063Z,8.01
2019-04-11T08:21:05.932Z,8.23
2019-04-11T08:22:04.807Z,8.12
2019-04-11T08:23:05.580Z,8.16
2019-04-11T08:24:04.991Z,8.05
2019-04-11T08:25:05.597Z,8.07
2019-04-11T08:26:06.058Z,8.04
2019-04-11T08:27:05.400Z,8.01
2019-04-11T08:28:07.839Z,7.95
2019-04-11T08:29:11.676Z,8.00
2019-04-11T08:30:04.965Z,7.92
2019-04-11T08:31:05.614Z,8.04
2019-04-11T08:32:05.087Z,7.98
2019-04-11T08:33:07.496Z,8.00
2019-04-11T08:34:05.206Z,8.05
2019-04-11T08:35:06.018Z,8.15
2019-04-11T08:36:05.821Z,8.15
2019-04-11T08:37:05.434Z,8.23
2019-04-11T08:38:05.709Z,8.30
2019-04-11T08:39:06.828Z,8.34
2019-04-11T08:40:05.866Z,8.38
2019-04-11T08:41:05.166Z,8.40
2019-04-11T08:42:05.236Z,8.52
2019-04-11T08:43:05.200Z,8.56
2019-04-11T08:44:05.621Z,8.55
2019-04-11T08:46:05.093Z,8.53
2019-04-11T08:47:05.180Z,8.56
2019-04-11T08:48:05.094Z,8.48
2019-04-11T08:49:05.663Z,8.61
2019-04-11T08:50:06.102Z,8.53
2019-04-11T08:51:05.569Z,8.61
2019-04-11T08:52:05.538Z,8.71
2019-04-11T08:53:05.173Z,8.66
2019-04-11T08:54:05.228Z,8.81
2019-04-11T08:55:06.226Z,8.94
2019-04-11T08:56:05.549Z,8.99
2019-04-11T08:57:05.394Z,8.98
2019-04-11T08:58:06.430Z,9.04
2019-04-11T08:59:05.304Z,9.10
2019-04-11T09:00:06.155Z,9.18
2019-04-11T09:02:05.254Z,9.17
2019-04-11T09:04:10.001Z,9.38
2019-04-11T09:05:12.058Z,9.28
2019-04-11T09:06:06.322Z,9.40
2019-04-11T09:07:05.331Z,9.40
2019-04-11T09:08:05.813Z,9.50
2019-04-11T09:09:05.348Z,9.54
2019-04-11T09:10:05.950Z,9.51
2019-04-11T09:11:06.470Z,9.54
2019-04-11T09:12:06.446Z,9.43
2019-04-11T09:13:05.396Z,9.38
2019-04-11T09:14:06.110Z,9.46
2019-04-11T09:15:05.987Z,9.42
2019-04-11T09:16:05.597Z,9.38
2019-04-11T09:18:09.018Z,9.47
2019-04-11T09:19:06.285Z,9.58
2019-04-11T09:20:05.554Z,9.68
2019-04-11T09:21:05.548Z,9.81
2019-04-11T09:22:06.731Z,9.81
2019-04-11T09:23:05.858Z,9.90
2019-04-11T09:24:06.177Z,9.97
2019-04-11T09:25:05.531Z,9.79
2019-04-11T09:26:05.558Z,9.91
2019-04-11T09:27:06.593Z,9.94
2019-04-11T09:28:05.554Z,10.09
2019-04-11T09:29:06.816Z,10.29
2019-04-11T09:31:08.936Z,10.44
2019-04-11T09:32:07.634Z,10.41
2019-04-11T09:34:05.846Z,9.89
2019-04-11T09:35:06.190Z,9.69
2019-04-11T09:36:07.911Z,9.90
2019-04-11T09:37:05.666Z,10.02
2019-04-11T09:38:06.388Z,10.33
2019-04-11T09:39:06.613Z,10.47
2019-04-11T09:40:05.879Z,10.17
2019-04-11T09:41:06.350Z,9.93
2019-04-11T09:42:07.080Z,9.89
2019-04-11T09:43:05.753Z,9.96
2019-04-11T09:44:06.556Z,10.02
2019-04-11T09:45:06.662Z,10.11
2019-04-11T09:46:06.174Z,10.38
2019-04-11T09:47:05.916Z,10.55
2019-04-11T09:48:12.067Z,10.74
2019-04-11T09:49:06.787Z,11.02
2019-04-11T09:50:07.650Z,11.06
2019-04-11T09:51:07.277Z,11.10
2019-04-11T09:52:07.298Z,10.89
2019-04-11T09:53:06.398Z,10.61
2019-04-11T09:54:05.916Z,10.55
2019-04-11T09:55:06.563Z,10.61
2019-04-11T09:56:06.875Z,10.63
2019-04-11T09:58:06.687Z,10.71
2019-04-11T10:00:06.894Z,11.10
2019-04-11T10:02:06.142Z,11.42
2019-04-11T10:04:06.516Z,11.35
2019-04-11T10:05:07.407Z,10.64
2019-04-11T10:06:07.228Z,10.51
2019-04-11T10:07:06.045Z,10.25
2019-04-11T10:08:06.486Z,10.48
2019-04-11T10:09:06.081Z,10.66
2019-04-11T10:10:06.088Z,10.84
2019-04-11T10:11:07.896Z,11.02
2019-04-11T10:12:06.562Z,11.22
2019-04-11T10:13:06.815Z,11.11
2019-04-11T10:15:07.182Z,10.91
2019-04-11T10:17:06.712Z,11.25
2019-04-11T10:18:19.606Z,11.47
2019-04-11T10:19:07.467Z,11.61
2019-04-11T10:20:06.627Z,11.73
2019-04-11T10:21:07.032Z,11.85
2019-04-11T10:22:07.223Z,11.83
2019-04-11T10:24:07.318Z,11.78
2019-04-11T10:26:07.593Z,11.57
2019-04-11T10:27:06.957Z,11.42
2019-04-11T10:28:06.450Z,11.47
2019-04-11T10:30:06.614Z,11.58
2019-04-11T10:31:06.496Z,11.69
2019-04-11T10:32:06.747Z,11.60
2019-04-11T10:33:06.657Z,11.57
2019-04-11T10:34:06.415Z,11.54
2019-04-11T10:35:06.461Z,11.57
2019-04-11T10:36:07.157Z,11.28
2019-04-11T10:37:07.432Z,11.32
2019-04-11T10:39:06.534Z,11.17
2019-04-11T10:42:06.736Z,10.84
2019-04-11T10:43:07.724Z,10.70
2019-04-11T10:44:07.583Z,10.74
2019-04-11T10:45:06.748Z,10.55
2019-04-11T10:46:07.155Z,10.33
2019-04-11T10:47:08.381Z,10.38
2019-04-11T10:48:07.435Z,10.45
2019-04-11T10:49:07.473Z,10.59
2019-04-11T10:50:07.042Z,10.59
2019-04-11T10:52:06.855Z,10.64
2019-04-11T10:53:06.926Z,10.59
2019-04-11T10:54:08.471Z,10.70
2019-04-11T10:55:07.449Z,10.81
2019-04-11T10:56:06.682Z,11.02
2019-04-11T10:57:07.562Z,10.81
2019-04-11T10:58:06.830Z,10.66
2019-04-11T10:59:07.142Z,10.94
2019-04-11T11:00:07.183Z,11.42
2019-04-11T11:01:07.533Z,11.49
2019-04-11T11:02:06.791Z,11.14
2019-04-11T11:03:06.797Z,10.88
2019-04-11T11:04:07.369Z,10.99
2019-04-11T11:05:07.362Z,11.06
2019-04-11T11:06:07.253Z,11.07
2019-04-11T11:07:07.084Z,10.74
2019-04-11T11:08:06.898Z,10.59
2019-04-11T11:09:07.820Z,10.82
2019-04-11T11:10:07.157Z,10.99
2019-04-11T11:11:08.091Z,11.09
2019-04-11T11:12:06.896Z,11.00
2019-04-11T11:14:07.097Z,10.81
2019-04-11T11:15:07.209Z,10.76
2019-04-11T11:17:06.961Z,10.94
2019-04-11T11:18:35.062Z,10.96
2019-04-11T11:19:31.616Z,10.96
2019-04-11T11:20:17.962Z,11.15
2019-04-11T11:21:07.440Z,11.33
2019-04-11T11:22:07.020Z,10.97
2019-04-11T11:23:10.955Z,11.07
2019-04-11T11:24:08.730Z,10.76
2019-04-11T11:25:11.599Z,10.73
2019-04-11T11:26:07.123Z,10.79
2019-04-11T11:27:07.424Z,10.84
2019-04-11T11:28:07.489Z,10.85
2019-04-11T11:29:10.267Z,10.91
2019-04-11T11:30:08.246Z,11.02
2019-04-11T11:31:07.508Z,11.09
2019-04-11T11:32:07.229Z,11.11
2019-04-11T11:33:07.865Z,10.91
2019-04-11T11:34:07.262Z,10.85
2019-04-11T11:35:07.400Z,10.73
2019-04-11T11:37:07.348Z,10.63
2019-04-11T11:38:07.230Z,10.68
2019-04-11T11:39:07.250Z,10.73
2019-04-11T11:40:12.850Z,10.78
2019-04-11T11:41:07.981Z,10.60
2019-04-11T11:42:08.254Z,10.61
2019-04-11T11:43:08.565Z,10.61
2019-04-11T11:44:07.677Z,10.70
2019-04-11T11:46:07.837Z,10.68
2019-04-11T11:47:08.364Z,10.76
2019-04-11T11:48:13.695Z,10.76
2019-04-11T11:50:10.497Z,10.85
2019-04-11T11:51:07.391Z,10.91
2019-04-11T11:52:07.407Z,10.94
2019-04-11T11:53:10.341Z,10.99
2019-04-11T11:55:08.294Z,11.03
2019-04-11T11:56:07.588Z,10.97
2019-04-11T11:57:08.647Z,11.11
2019-04-11T11:58:07.649Z,11.18
2019-04-11T11:59:09.109Z,11.33
2019-04-11T12:00:07.497Z,11.36
2019-04-11T12:01:09.397Z,11.33
2019-04-11T12:02:08.494Z,11.46
2019-04-11T12:03:08.986Z,11.47
2019-04-11T12:04:08.601Z,11.61
2019-04-11T12:05:12.462Z,11.58
2019-04-11T12:06:09.522Z,11.35
2019-04-11T12:07:08.663Z,11.36
2019-04-11T12:08:10.819Z,11.40
2019-04-11T12:09:07.890Z,11.52
2019-04-11T12:10:09.038Z,11.47
2019-04-11T12:11:08.158Z,11.40
2019-04-11T12:12:08.213Z,11.39
2019-04-11T12:13:12.815Z,11.28
2019-04-11T12:14:07.769Z,11.29
2019-04-11T12:15:09.747Z,11.25
2019-04-11T12:16:07.941Z,11.35
2019-04-11T12:17:08.429Z,11.36
2019-04-11T12:18:11.045Z,11.46
2019-04-11T12:19:10.814Z,11.29
2019-04-11T12:20:11.690Z,11.33
2019-04-11T12:21:08.035Z,11.29
2019-04-11T12:22:08.847Z,11.33
2019-04-11T12:23:08.766Z,11.29
2019-04-11T12:24:08.509Z,11.46
2019-04-11T12:25:09.068Z,11.57
2019-04-11T12:26:10.516Z,11.78
2019-04-11T12:27:09.792Z,11.96
2019-04-11T12:28:13.141Z,12.07
2019-04-11T12:29:10.243Z,12.20
2019-04-11T12:30:09.531Z,12.24
2019-04-11T12:31:09.282Z,11.98
2019-04-11T12:32:10.296Z,11.75
2019-04-11T12:33:08.932Z,11.73
2019-04-11T12:34:08.154Z,11.70
2019-04-11T12:35:08.236Z,11.75
2019-04-11T12:36:12.469Z,11.76
2019-04-11T12:37:08.981Z,11.82
2019-04-11T12:38:07.998Z,11.86
2019-04-11T12:39:08.018Z,11.90
2019-04-11T12:40:09.646Z,11.94
2019-04-11T12:41:08.026Z,11.96
2019-04-11T12:42:08.041Z,11.55
2019-04-11T12:43:09.614Z,11.43
2019-04-11T12:44:08.652Z,11.44
2019-04-11T12:45:08.080Z,11.29
2019-04-11T12:46:08.092Z,11.39
2019-04-11T12:47:09.430Z,11.47
2019-04-11T12:48:11.949Z,11.57
2019-04-11T12:49:08.133Z,11.72
2019-04-11T12:50:08.155Z,11.73
2019-04-11T12:51:08.177Z,11.91
2019-04-11T12:52:08.253Z,11.85
2019-04-11T12:53:08.294Z,11.90
2019-04-11T12:54:08.246Z,12.01
2019-04-11T12:55:08.367Z,12.04
2019-04-11T12:56:08.399Z,12.05
2019-04-11T12:57:08.750Z,12.05
2019-04-11T12:58:08.745Z,12.10
2019-04-11T13:00:08.923Z,12.05
2019-04-11T13:01:08.620Z,11.95
2019-04-11T13:02:08.734Z,11.90
2019-04-11T13:03:09.760Z,11.85
2019-04-11T13:04:09.419Z,11.82
2019-04-11T13:05:12.436Z,11.80
2019-04-11T13:06:10.138Z,11.88
2019-04-11T13:07:09.205Z,11.90
2019-04-11T13:09:08.876Z,11.98
2019-04-11T13:10:08.924Z,11.90
2019-04-11T13:11:08.938Z,11.95
2019-04-11T13:12:09.248Z,11.86
2019-04-11T13:13:10.789Z,11.75
2019-04-11T13:14:12.165Z,11.78
2019-04-11T13:15:08.826Z,11.69
2019-04-11T13:16:12.427Z,11.55
2019-04-11T13:17:08.511Z,11.64
2019-04-11T13:18:08.529Z,11.69
2019-04-11T13:19:08.583Z,11.60
2019-04-11T13:20:08.657Z,11.54
2019-04-11T13:21:08.564Z,11.61
2019-04-11T13:22:08.579Z,11.73
2019-04-11T13:23:08.669Z,11.62
2019-04-11T13:24:08.602Z,11.72
2019-04-11T13:25:08.630Z,11.80
2019-04-11T13:26:08.647Z,11.58
2019-04-11T13:27:08.648Z,11.64
2019-04-11T13:28:10.118Z,11.60
2019-04-11T13:29:08.725Z,11.52
2019-04-11T13:30:08.702Z,11.57
2019-04-11T13:31:08.705Z,11.57
2019-04-11T13:32:08.725Z,11.55
2019-04-11T13:33:08.775Z,11.61
2019-04-11T13:34:11.124Z,11.61
2019-04-11T13:35:08.751Z,11.70
2019-04-11T13:36:08.782Z,11.72
2019-04-11T13:37:09.251Z,11.64
2019-04-11T13:38:08.812Z,11.62
2019-04-11T13:39:08.838Z,11.57
2019-04-11T13:40:08.897Z,11.67
2019-04-11T13:42:08.857Z,11.60
2019-04-11T13:43:08.914Z,11.57
2019-04-11T13:44:09.917Z,11.52
2019-04-11T13:45:10.106Z,11.36
2019-04-11T13:46:09.014Z,11.42
2019-04-11T13:47:08.920Z,11.52
2019-04-11T13:48:08.980Z,11.54
2019-04-11T13:49:10.263Z,11.55
2019-04-11T13:50:16.370Z,11.57
2019-04-11T13:51:09.423Z,11.51
2019-04-11T13:52:08.992Z,11.55
2019-04-11T13:53:08.997Z,11.58
2019-04-11T13:54:09.049Z,11.72
2019-04-11T13:55:09.126Z,11.76
2019-04-11T13:56:09.071Z,11.75
2019-04-11T13:57:09.080Z,11.67
2019-04-11T13:58:09.067Z,11.72
2019-04-11T13:59:09.090Z,11.70
2019-04-11T14:00:09.279Z,11.76
2019-04-11T14:01:11.329Z,11.67
2019-04-11T14:02:09.843Z,11.79
2019-04-11T14:03:10.067Z,11.75
2019-04-11T14:04:11.991Z,11.79
2019-04-11T14:05:10.853Z,11.95
2019-04-11T14:06:10.523Z,11.90
2019-04-11T14:07:09.941Z,11.82
2019-04-11T14:08:09.926Z,11.75
2019-04-11T14:09:10.106Z,12.01